Time;durP1;ratioP1;P1;durP2;ratioP2;P2;SDS_P1;SDS_P2;PMS_P1;PMS_P2;Temp;Humidity;BMP_temperature;BMP_pressure;BME280_temperature;BME280_humidity;BME280_pressure;Samples;Min_cycle;Max_cycle;Signal;HPM_P1;HPM_P2
2022/04/01 00:01:27;;;;;;;6.00;2.97;;;-4.80;99.90;;;;;;5004492;28;20442;-65
2022/04/01 00:03:54;;;;;;;12.37;3.93;;;-4.80;99.90;;;;;;5006160;28;20062;-65
2022/04/01 00:06:21;;;;;;;4.97;2.60;;;-4.80;99.90;;;;;;5003202;28;20125;-65
2022/04/01 00:08:48;;;;;;;6.47;2.23;;;-4.80;99.90;;;;;;5006155;28;20665;-63
2022/04/01 00:11:15;;;;;;;5.80;1.97;;;-4.80;99.90;;;;;;5005502;28;20048;-69
2022/04/01 00:13:42;;;;;;;4.20;2.43;;;-4.90;99.90;;;;;;5003617;28;20054;-71
2022/04/01 00:16:09;;;;;;;7.63;2.83;;;-4.90;99.90;;;;;;4999439;28;20077;-67
2022/04/01 00:18:36;;;;;;;4.97;2.77;;;-4.90;99.90;;;;;;5004166;28;20064;-64
2022/04/01 00:21:03;;;;;;;5.67;2.73;;;-4.90;99.90;;;;;;5004781;28;20459;-68
2022/04/01 00:23:30;;;;;;;7.43;3.03;;;-4.90;99.90;;;;;;5005965;28;20149;-66
2022/04/01 00:25:57;;;;;;;5.27;2.73;;;-4.90;99.90;;;;;;5002331;28;20053;-64
2022/04/01 00:28:23;;;;;;;4.30;3.27;;;-4.90;99.90;;;;;;5002794;28;20144;-67
2022/04/01 00:30:50;;;;;;;4.73;3.00;;;-4.90;99.90;;;;;;4996398;28;20133;-68
2022/04/01 00:33:18;;;;;;;5.10;2.40;;;-5.00;99.90;;;;;;5008369;28;20136;-63
2022/04/01 00:35:45;;;;;;;5.17;2.53;;;-5.00;99.90;;;;;;5009621;28;20127;-65
2022/04/01 00:38:12;;;;;;;9.63;2.70;;;-5.00;99.90;;;;;;4994841;28;20121;-67
2022/04/01 00:40:41;;;;;;;7.50;2.80;;;-5.00;99.90;;;;;;5010612;28;20045;-64
2022/04/01 00:43:08;;;;;;;4.97;2.93;;;-5.00;99.90;;;;;;5003606;28;20123;-64
2022/04/01 00:45:35;;;;;;;4.93;2.60;;;-5.00;99.90;;;;;;5003251;28;20042;-70
2022/04/01 00:48:03;;;;;;;3.37;2.40;;;-5.10;99.90;;;;;;5001958;28;20042;-66
2022/04/01 00:50:32;;;;;;;11.40;3.10;;;-5.10;99.90;;;;;;4999427;28;20084;-65
2022/04/01 00:53:00;;;;;;;13.13;3.10;;;-5.00;99.90;;;;;;5005615;28;20064;-66
2022/04/01 00:55:29;;;;;;;4.10;2.33;;;-5.00;99.90;;;;;;5004812;28;20053;-64
2022/04/01 00:57:56;;;;;;;6.63;3.28;;;-5.00;99.90;;;;;;5003748;28;20057;-66
2022/04/01 01:00:25;;;;;;;9.40;2.77;;;-5.00;99.90;;;;;;5000484;28;20058;-65
2022/04/01 01:02:54;;;;;;;8.13;2.43;;;-5.00;99.90;;;;;;5001146;28;20672;-67
2022/04/01 01:05:22;;;;;;;7.73;2.10;;;-5.00;99.90;;;;;;5017111;28;20144;-66
2022/04/01 01:07:49;;;;;;;7.37;2.70;;;-5.00;99.90;;;;;;5004241;28;20063;-66
2022/04/01 01:10:18;;;;;;;4.10;2.20;;;-4.90;99.90;;;;;;4997793;28;20767;-70
2022/04/01 01:12:45;;;;;;;6.53;2.23;;;-4.90;99.90;;;;;;5003380;28;20045;-66
2022/04/01 01:15:15;;;;;;;3.97;2.20;;;-4.90;99.90;;;;;;5020030;28;20479;-71
2022/04/01 01:17:42;;;;;;;12.35;2.47;;;-4.90;99.90;;;;;;4995541;28;20035;-64
2022/04/01 01:20:17;;;;;;;4.97;1.90;;;-4.90;99.90;;;;;;5004445;28;20424;-65
2022/04/01 01:22:49;;;;;;;1.77;1.50;;;-4.90;99.90;;;;;;4998161;28;20081;-68
2022/04/01 01:25:17;;;;;;;2.37;2.10;;;-4.90;99.90;;;;;;5003483;28;20660;-67
2022/04/01 01:27:44;;;;;;;3.60;2.17;;;-4.90;99.90;;;;;;4995170;28;20054;-68
2022/04/01 01:30:12;;;;;;;4.47;1.67;;;-4.90;99.90;;;;;;5015304;28;20624;-66
2022/04/01 01:32:39;;;;;;;3.60;2.00;;;-4.90;99.90;;;;;;5010489;28;20048;-64
2022/04/01 01:35:08;;;;;;;3.30;2.10;;;-4.90;99.90;;;;;;5001985;28;20053;-66
2022/04/01 01:37:36;;;;;;;3.45;1.70;;;-4.90;99.90;;;;;;4998282;28;20045;-68
2022/04/01 01:40:04;;;;;;;1.53;1.33;;;-4.90;99.90;;;;;;5004280;28;20081;-66
2022/04/01 01:42:32;;;;;;;1.57;1.30;;;-4.90;99.90;;;;;;5003041;28;20203;-65
2022/04/01 01:45:00;;;;;;;2.20;1.97;;;-4.90;99.90;;;;;;5003904;28;20534;-71
2022/04/01 01:47:27;;;;;;;3.40;1.50;;;-5.00;99.90;;;;;;4999591;28;20058;-64
2022/04/01 01:55:27;;;;;;;4.67;2.53;;;-4.90;99.90;;;;;;5003953;28;20065;-66
2022/04/01 01:57:56;;;;;;;6.43;2.50;;;-4.90;99.90;;;;;;5001105;28;20050;-63
2022/04/01 02:00:23;;;;;;;3.73;1.80;;;-5.00;99.90;;;;;;5001021;28;20061;-66
2022/04/01 02:02:50;;;;;;;2.77;1.97;;;-5.00;99.90;;;;;;5001375;28;20146;-68
2022/04/01 02:05:17;;;;;;;3.53;1.73;;;-5.00;99.90;;;;;;5000819;28;20065;-64
2022/04/01 02:07:47;;;;;;;5.43;1.60;;;-5.00;99.90;;;;;;4989848;28;20547;-69
2022/04/01 02:10:15;;;;;;;7.18;2.30;;;-5.00;99.90;;;;;;4994552;28;20064;-68
2022/04/01 02:12:43;;;;;;;6.13;2.70;;;-5.00;99.90;;;;;;5008155;28;20077;-65
2022/04/01 02:15:11;;;;;;;4.30;2.13;;;-5.00;99.90;;;;;;4995314;28;20056;-66
2022/04/01 02:17:40;;;;;;;3.97;1.80;;;-5.00;99.90;;;;;;4997723;28;20050;-68
2022/04/01 02:20:11;;;;;;;7.83;2.70;;;-5.10;99.90;;;;;;5011330;28;20042;-65
2022/04/01 02:22:39;;;;;;;7.37;2.60;;;-5.10;99.90;;;;;;4988422;28;20396;-66
2022/04/01 02:25:08;;;;;;;13.10;5.00;;;-5.10;99.90;;;;;;4999079;28;20445;-64
2022/04/01 02:27:35;;;;;;;8.20;2.17;;;-5.10;99.90;;;;;;5002443;28;20054;-66
2022/04/01 02:30:10;;;;;;;8.67;2.43;;;-5.10;99.90;;;;;;5002880;28;20041;-68
2022/04/01 02:32:41;;;;;;;5.57;2.13;;;-5.10;99.90;;;;;;4996181;28;20069;-68
2022/04/01 02:35:29;;;;;;;4.67;1.97;;;-5.10;99.90;;;;;;5012201;28;20515;-70
2022/04/01 02:37:57;;;;;;;9.63;2.93;;;-5.10;99.90;;;;;;4995218;28;20041;-63
2022/04/01 02:40:24;;;;;;;8.23;1.77;;;-5.10;99.90;;;;;;4999009;28;20041;-63
2022/04/01 02:42:53;;;;;;;4.07;2.13;;;-5.10;99.90;;;;;;5000644;28;20050;-66
2022/04/01 02:45:23;;;;;;;13.82;3.15;;;-5.10;99.90;;;;;;5002867;28;20658;-67
2022/04/01 02:47:51;;;;;;;9.47;4.77;;;-5.10;99.90;;;;;;5000013;28;20046;-64
2022/04/01 02:50:20;;;;;;;21.40;3.83;;;-5.00;99.90;;;;;;4998461;28;20080;-64
2022/04/01 02:52:47;;;;;;;25.53;3.93;;;-5.00;99.90;;;;;;4992648;28;20129;-64
2022/04/01 02:55:14;;;;;;;21.40;3.33;;;-5.10;99.90;;;;;;4995654;28;20042;-65
2022/04/01 02:57:41;;;;;;;15.00;3.30;;;-5.00;99.90;;;;;;5000457;28;20103;-67
2022/04/01 03:00:09;;;;;;;13.03;2.67;;;-5.00;99.90;;;;;;4991782;28;20057;-66
2022/04/01 03:02:49;;;;;;;31.73;5.97;;;-5.10;99.90;;;;;;4999587;28;20132;-67
2022/04/01 03:05:19;;;;;;;10.60;2.63;;;-5.00;99.90;;;;;;4999097;28;20420;-64
2022/04/01 03:07:47;;;;;;;23.25;2.97;;;-5.00;99.90;;;;;;5000641;28;20481;-64
2022/04/01 03:10:14;;;;;;;10.43;2.83;;;-5.00;99.90;;;;;;4990695;28;20054;-70
2022/04/01 03:12:41;;;;;;;18.80;3.03;;;-5.00;99.90;;;;;;5002685;28;20050;-66
2022/04/01 03:15:21;;;;;;;;;;;-5.10;99.90;;;;;;4999424;28;20090;-67
2022/04/01 03:18:14;;;;;;;15.13;4.90;;;-5.10;99.90;;;;;;5003054;28;19921;-67
2022/04/01 03:20:45;;;;;;;9.98;3.83;;;-5.10;99.90;;;;;;5000865;28;20444;-68
2022/04/01 03:23:12;;;;;;;15.70;3.70;;;-5.10;99.90;;;;;;4996571;28;20066;-70
2022/04/01 03:25:42;;;;;;;;;;;-5.10;99.90;;;;;;4995490;28;20146;-66
2022/04/01 03:28:22;;;;;;;5.40;2.93;;;-5.10;99.90;;;;;;5015008;28;20375;-64
2022/04/01 03:31:03;;;;;;;3.87;2.57;;;-5.10;99.90;;;;;;4994591;28;20422;-64
2022/04/01 03:33:34;;;;;;;4.23;2.20;;;-5.10;99.90;;;;;;5007362;28;20538;-69
2022/04/01 03:36:01;;;;;;;7.27;1.97;;;-5.10;99.90;;;;;;5004088;28;20549;-64
2022/04/01 03:38:32;;;;;;;2.93;1.63;;;-5.10;99.90;;;;;;5004568;28;20054;-70
2022/04/01 03:41:01;;;;;;;6.50;2.63;;;-5.10;99.90;;;;;;4993033;28;20049;-63
2022/04/01 03:43:29;;;;;;;3.40;1.90;;;-5.10;99.90;;;;;;5003491;28;20045;-68
2022/04/01 03:46:08;;;;;;;4.27;2.23;;;-5.10;99.90;;;;;;4999793;28;20089;-65
2022/04/01 03:48:52;;;;;;;7.10;1.93;;;-5.10;99.90;;;;;;4996725;28;20050;-65
2022/04/01 03:51:22;;;;;;;1.70;1.60;;;-5.10;99.90;;;;;;4996338;28;20069;-63
2022/04/01 03:53:55;;;;;;;;;;;-5.10;99.90;;;;;;4995282;28;20049;-63
2022/04/01 03:56:36;;;;;;;4.17;2.00;;;-5.10;99.90;;;;;;5011282;28;20035;-65
2022/04/01 03:59:25;;;;;;;4.23;2.10;;;-5.10;99.90;;;;;;5001337;28;20068;-69
2022/04/01 04:02:21;;;;;;;3.57;2.00;;;-5.10;99.90;;;;;;5001283;28;20046;-63
2022/04/01 04:04:50;;;;;;;4.33;1.77;;;-5.10;99.90;;;;;;5004909;28;20081;-69
2022/04/01 04:07:18;;;;;;;3.57;1.97;;;-5.10;99.90;;;;;;5002168;28;20053;-67
2022/04/01 04:09:48;;;;;;;6.43;3.30;;;-5.00;99.90;;;;;;4998564;28;20054;-65
2022/04/01 04:12:19;;;;;;;6.43;2.40;;;-5.00;99.90;;;;;;4995084;28;20060;-66
2022/04/01 04:14:53;;;;;;;7.53;2.67;;;-5.00;99.90;;;;;;5000350;28;20450;-66
2022/04/01 04:17:25;;;;;;;9.60;2.57;;;-5.00;99.90;;;;;;5003563;28;20057;-69
2022/04/01 04:19:54;;;;;;;9.63;2.20;;;-4.90;99.90;;;;;;5002216;28;20046;-67
2022/04/01 04:22:34;;;;;;;10.90;2.55;;;-4.90;99.90;;;;;;5000612;28;20057;-63
2022/04/01 04:25:10;;;;;;;10.07;3.85;;;-4.80;99.90;;;;;;5001623;28;20049;-68
2022/04/01 04:27:51;;;;;;;12.03;3.10;;;-4.80;99.90;;;;;;5003697;28;20042;-64
2022/04/01 04:30:18;;;;;;;12.98;2.95;;;-4.80;99.90;;;;;;4994226;28;20111;-66
2022/04/01 04:33:04;;;;;;;13.97;3.70;;;-4.80;99.90;;;;;;4998933;28;20747;-67
2022/04/01 04:35:35;;;;;;;12.33;3.67;;;-4.70;99.90;;;;;;5001609;28;20141;-70
2022/04/01 04:38:03;;;;;;;13.07;2.20;;;-4.70;99.90;;;;;;4997032;28;20064;-65
2022/04/01 04:40:31;;;;;;;23.43;3.17;;;-4.70;99.90;;;;;;4994853;28;20045;-66
2022/04/01 04:43:12;;;;;;;11.40;2.83;;;-4.60;99.90;;;;;;4988511;28;20134;-63
2022/04/01 04:45:40;;;;;;;8.98;3.38;;;-4.60;99.90;;;;;;5007456;28;20432;-64
2022/04/01 04:48:10;;;;;;;14.85;3.45;;;-4.60;99.90;;;;;;5009914;28;20696;-64
2022/04/01 04:50:38;;;;;;;21.35;4.00;;;-4.60;99.90;;;;;;4998907;28;20053;-66
2022/04/01 04:53:06;;;;;;;12.67;3.77;;;-4.60;99.90;;;;;;5009370;28;20704;-66
2022/04/01 04:55:34;;;;;;;18.70;4.60;;;-4.60;99.90;;;;;;4998793;28;20038;-69
2022/04/01 04:58:07;;;;;;;;;;;-4.60;99.90;;;;;;4992969;28;20050;-66
2022/04/01 05:00:38;;;;;;;14.53;4.27;;;-4.50;99.90;;;;;;4989374;28;19937;-68
2022/04/01 05:04:03;;;;;;;21.80;4.47;;;-4.50;99.90;;;;;;4990325;28;20053;-63
2022/04/01 05:06:39;;;;;;;16.47;5.17;;;-4.50;99.90;;;;;;4979136;28;20077;-63
2022/04/01 05:09:44;;;;;;;;;;;-4.50;99.90;;;;;;4995270;28;20192;-66
2022/04/01 05:12:23;;;;;;;8.73;3.30;;;-4.50;99.90;;;;;;4996397;28;19930;-69
2022/04/01 05:15:05;;;;;;;15.57;3.90;;;-4.50;99.90;;;;;;5011254;28;20736;-66
2022/04/01 05:18:06;;;;;;;21.77;5.73;;;-4.50;99.90;;;;;;4997321;28;20066;-66
2022/04/01 05:20:38;;;;;;;19.23;3.97;;;-4.50;99.90;;;;;;5005498;28;20444;-66
2022/04/01 05:23:26;;;;;;;13.50;2.93;;;-4.50;99.90;;;;;;4993174;28;20180;-68
2022/04/01 05:26:00;;;;;;;24.33;4.77;;;-4.50;99.90;;;;;;4994234;28;20045;-69
2022/04/01 05:29:01;;;;;;;26.03;5.20;;;-4.40;99.90;;;;;;4993567;28;20069;-66
2022/04/01 05:31:44;;;;;;;18.90;2.77;;;-4.30;99.90;;;;;;4996691;28;20053;-62
2022/04/01 05:34:34;;;;;;;8.10;3.00;;;-4.30;99.90;;;;;;4988017;28;20049;-66
2022/04/01 05:37:02;;;;;;;11.10;4.07;;;-4.20;99.90;;;;;;5009502;28;20755;-66
2022/04/01 05:39:33;;;;;;;15.25;3.78;;;-4.10;99.90;;;;;;4996294;28;20059;-66
2022/04/01 05:42:07;;;;;;;24.63;5.23;;;-4.10;99.90;;;;;;4995627;28;20050;-63
2022/04/01 05:44:44;;;;;;;27.17;5.30;;;-4.00;99.90;;;;;;4994651;28;20140;-64
2022/04/01 05:47:11;;;;;;;15.67;4.80;;;-3.90;99.90;;;;;;4994517;28;20051;-68
2022/04/01 05:49:41;;;;;;;32.33;8.53;;;-3.80;99.90;;;;;;4994390;28;20165;-65
2022/04/01 05:52:12;;;;;;;32.33;7.33;;;-3.70;99.90;;;;;;4992080;28;20108;-64
2022/04/01 05:54:42;;;;;;;28.67;8.57;;;-3.60;99.90;;;;;;4994230;28;20564;-62
2022/04/01 05:57:12;;;;;;;22.97;5.90;;;-3.60;99.90;;;;;;5000230;28;20065;-64
2022/04/01 05:59:41;;;;;;;29.20;9.88;;;-3.50;99.90;;;;;;4999012;28;20034;-64
2022/04/01 06:02:30;;;;;;;26.42;7.57;;;-3.40;99.90;;;;;;4995595;28;20065;-66
2022/04/01 06:05:04;;;;;;;24.10;5.57;;;-3.30;99.90;;;;;;4990907;28;20136;-70
2022/04/01 06:07:44;;;;;;;21.73;6.50;;;-3.20;99.90;;;;;;4998704;28;20092;-63
2022/04/01 06:10:29;;;;;;;14.43;5.45;;;-3.10;99.90;;;;;;4997431;28;20133;-66
2022/04/01 06:13:29;;;;;;;19.70;4.87;;;-3.00;99.90;;;;;;4992449;28;20176;-70
2022/04/01 06:16:29;;;;;;;15.88;3.35;;;-2.90;99.90;;;;;;4993841;28;20056;-71
2022/04/01 06:19:34;;;;;;;18.50;4.05;;;-2.80;99.90;;;;;;4996710;28;20053;-65
2022/04/01 06:22:08;;;;;;;13.50;4.00;;;-2.60;99.90;;;;;;4995397;28;20042;-64
2022/04/01 06:24:49;;;;;;;20.52;3.97;;;-2.40;99.90;;;;;;5005047;28;20129;-68
2022/04/01 06:27:28;;;;;;;15.63;4.93;;;-2.30;99.90;;;;;;5007069;28;20188;-65
2022/04/01 06:30:06;;;;;;;13.13;3.15;;;-2.00;99.90;;;;;;4990329;28;20092;-69
2022/04/01 06:32:55;;;;;;;13.52;4.15;;;-1.80;99.90;;;;;;4993844;28;20073;-64
2022/04/01 06:35:44;;;;;;;13.90;3.13;;;-1.70;99.90;;;;;;4995760;28;20140;-64
2022/04/01 06:39:01;;;;;;;19.45;4.53;;;-1.50;99.90;;;;;;4987410;28;20149;-65
2022/04/01 06:41:41;;;;;;;15.23;4.25;;;-1.30;99.90;;;;;;4968575;28;20784;-69
2022/04/01 06:44:28;;;;;;;15.35;4.35;;;-1.20;99.90;;;;;;4994365;28;20591;-66
2022/04/01 06:47:18;;;;;;;6.00;2.40;;;-1.10;99.90;;;;;;4992269;28;20054;-64
2022/04/01 06:49:47;;;;;;;9.48;2.63;;;-0.90;99.90;;;;;;5000307;28;20050;-66
2022/04/01 06:52:33;;;;;;;7.25;2.45;;;-0.80;99.90;;;;;;4992936;28;20088;-64
2022/04/01 06:55:19;;;;;;;10.18;2.97;;;-0.70;99.90;;;;;;4991245;28;20101;-63
2022/04/01 06:57:52;;;;;;;6.40;2.42;;;-0.60;99.90;;;;;;4993104;28;20701;-63
2022/04/01 07:00:34;;;;;;;4.03;2.15;;;-0.50;99.90;;;;;;4987068;28;20511;-63
2022/04/01 07:03:01;;;;;;;8.98;3.63;;;-0.30;99.90;;;;;;4994912;28;20046;-65
2022/04/01 07:05:29;;;;;;;6.78;2.38;;;-0.20;99.90;;;;;;4996956;28;20132;-64
2022/04/01 07:07:56;;;;;;;7.30;1.98;;;-0.10;99.90;;;;;;4994892;28;20095;-65
2022/04/01 07:10:23;;;;;;;5.32;1.75;;;0.00;99.90;;;;;;4994453;28;20107;-70
2022/04/01 07:12:51;;;;;;;5.57;1.88;;;0.10;99.90;;;;;;4994937;28;20056;-66
2022/04/01 07:15:18;;;;;;;4.53;1.92;;;0.20;99.90;;;;;;4998466;28;20069;-64
2022/04/01 07:17:44;;;;;;;9.40;2.05;;;0.30;99.90;;;;;;4989992;28;20073;-64
2022/04/01 07:20:12;;;;;;;2.00;1.13;;;0.30;99.90;;;;;;4994529;28;20156;-62
2022/04/01 07:22:48;;;;;;;3.13;1.48;;;0.40;99.90;;;;;;4999444;28;20034;-62
2022/04/01 07:25:15;;;;;;;2.80;1.60;;;0.50;99.90;;;;;;4993272;28;20123;-67
2022/04/01 07:27:42;;;;;;;5.95;1.73;;;0.50;99.90;;;;;;4993492;28;20450;-69
2022/04/01 07:30:10;;;;;;;2.50;0.80;;;0.60;99.90;;;;;;4996780;28;20847;-62
2022/04/01 07:32:39;;;;;;;7.15;1.85;;;0.70;99.90;;;;;;4997111;28;20149;-63
2022/04/01 07:35:11;;;;;;;7.55;1.45;;;0.90;99.90;;;;;;4993561;28;20539;-66
2022/04/01 07:37:38;;;;;;;9.70;1.80;;;1.00;99.90;;;;;;4994345;28;20941;-65
2022/04/01 07:40:19;;;;;;;8.45;1.33;;;1.00;99.90;;;;;;4986873;28;20042;-65
2022/04/01 07:42:46;;;;;;;5.07;2.55;;;1.00;99.90;;;;;;4990099;28;20068;-63
2022/04/01 07:45:13;;;;;;;4.00;1.42;;;1.10;99.90;;;;;;4992568;28;20082;-66
2022/04/01 07:47:44;;;;;;;8.18;1.27;;;1.30;99.90;;;;;;4997842;28;20049;-66
2022/04/01 07:50:14;;;;;;;4.47;1.38;;;1.40;99.90;;;;;;4991510;28;20061;-64
2022/04/01 07:52:43;;;;;;;2.33;1.05;;;1.50;99.90;;;;;;4986882;28;20066;-63
2022/04/01 07:55:13;;;;;;;3.43;1.10;;;1.60;99.90;;;;;;4997215;28;20050;-63
2022/04/01 07:57:42;;;;;;;5.35;1.10;;;1.70;99.90;;;;;;4990248;28;20144;-64
2022/04/01 08:00:16;;;;;;;4.28;1.63;;;1.70;99.90;;;;;;4988503;28;20053;-66
2022/04/01 08:02:44;;;;;;;2.05;1.00;;;1.90;99.90;;;;;;4986844;28;20046;-67
2022/04/01 08:05:12;;;;;;;10.80;1.20;;;2.00;99.90;;;;;;4990934;28;20050;-65
2022/04/01 08:07:40;;;;;;;2.97;1.25;;;2.10;99.90;;;;;;4993091;28;20064;-65
2022/04/01 08:10:08;;;;;;;3.38;1.00;;;2.20;99.90;;;;;;4998709;28;20038;-64
2022/04/01 08:12:42;;;;;;;5.28;1.65;;;2.40;99.90;;;;;;4987018;28;20051;-64
2022/04/01 08:15:11;;;;;;;6.03;1.90;;;2.50;99.90;;;;;;4986990;28;20038;-63
2022/04/01 08:17:38;;;;;;;4.93;1.80;;;2.50;99.90;;;;;;4998472;28;20672;-65
2022/04/01 08:20:06;;;;;;;1.55;0.70;;;2.60;99.90;;;;;;5001830;28;20062;-62
2022/04/01 08:22:33;;;;;;;5.90;0.73;;;2.30;99.90;;;;;;4995119;28;20153;-63
2022/04/01 08:25:00;;;;;;;5.65;1.10;;;2.10;99.90;;;;;;4996733;28;20161;-63
2022/04/01 08:27:27;;;;;;;6.50;1.10;;;2.00;99.90;;;;;;4998932;28;20069;-63
2022/04/01 08:29:59;;;;;;;1.77;1.13;;;1.90;99.90;;;;;;4995883;28;23936;-65
2022/04/01 08:32:29;;;;;;;10.63;1.73;;;2.00;99.90;;;;;;4996341;28;20438;-62
2022/04/01 08:34:57;;;;;;;1.88;1.27;;;2.00;99.90;;;;;;4994918;28;20094;-67
2022/04/01 08:37:24;;;;;;;5.93;1.20;;;2.20;99.90;;;;;;4995221;28;20361;-62
2022/04/01 08:39:53;;;;;;;3.75;1.33;;;2.20;99.90;;;;;;4998242;28;20536;-64
2022/04/01 08:42:20;;;;;;;2.15;1.10;;;2.30;99.90;;;;;;4990267;28;20835;-68
2022/04/01 08:44:50;;;;;;;5.78;1.27;;;2.20;99.90;;;;;;4993693;28;20053;-65
2022/04/01 08:47:18;;;;;;;2.50;1.48;;;2.20;99.90;;;;;;4998715;28;20412;-62
2022/04/01 08:49:45;;;;;;;5.35;1.15;;;2.10;99.90;;;;;;4994912;28;20070;-68
2022/04/01 08:52:12;;;;;;;3.58;1.85;;;2.00;99.90;;;;;;4996779;28;20161;-63
2022/04/01 08:54:39;;;;;;;5.15;1.02;;;2.00;99.90;;;;;;5000474;28;20548;-65
2022/04/01 08:57:08;;;;;;;5.35;1.25;;;2.00;99.90;;;;;;4999113;28;20049;-65
2022/04/01 08:59:35;;;;;;;8.38;2.80;;;2.00;99.90;;;;;;4990891;28;20057;-69
2022/04/01 09:02:08;;;;;;;3.13;1.60;;;2.00;99.90;;;;;;4990325;28;20050;-64
2022/04/01 09:04:36;;;;;;;5.10;1.63;;;2.00;99.90;;;;;;4991797;28;20046;-63
2022/04/01 09:07:10;;;;;;;3.67;1.10;;;2.00;99.90;;;;;;4993850;28;20149;-66
2022/04/01 09:09:38;;;;;;;3.72;1.20;;;2.00;99.90;;;;;;4994711;28;20050;-66
2022/04/01 09:12:12;;;;;;;7.00;1.48;;;2.00;99.90;;;;;;4999494;28;20089;-62
2022/04/01 09:14:41;;;;;;;2.33;1.13;;;2.10;99.90;;;;;;5000098;28;20064;-66
2022/04/01 09:17:11;;;;;;;4.43;0.70;;;2.30;99.90;;;;;;4999854;28;20058;-65
2022/04/01 09:19:46;;;;;;;6.28;0.77;;;2.60;99.90;;;;;;4999105;28;20056;-64
2022/04/01 09:22:24;;;;;;;9.48;1.17;;;2.80;99.90;;;;;;4998223;28;20133;-70
2022/04/01 09:24:55;;;;;;;11.75;1.80;;;3.00;99.90;;;;;;5004232;28;20052;-63
2022/04/01 09:27:38;;;;;;;3.60;1.13;;;3.20;99.90;;;;;;5001477;28;20072;-68
2022/04/01 09:30:07;;;;;;;8.65;1.00;;;3.30;99.90;;;;;;5002267;28;20542;-64
2022/04/01 09:32:43;;;;;;;5.68;0.88;;;3.30;99.90;;;;;;4997527;28;20048;-63
2022/04/01 09:35:11;;;;;;;2.17;1.42;;;3.40;99.90;;;;;;5000135;28;20187;-64
2022/04/01 09:38:02;;;;;;;4.53;1.95;;;3.40;99.90;;;;;;5000474;28;20143;-66
2022/04/01 09:40:30;;;;;;;5.88;1.50;;;3.30;99.90;;;;;;4997364;28;20532;-70
2022/04/01 09:43:06;;;;;;;3.17;0.95;;;3.30;99.90;;;;;;5008644;28;20045;-65
2022/04/01 09:45:35;;;;;;;10.05;2.35;;;3.10;99.90;;;;;;4997656;28;20057;-65
2022/04/01 09:48:05;;;;;;;1.73;1.00;;;2.90;99.90;;;;;;4997338;28;20443;-63
2022/04/01 09:50:34;;;;;;;3.58;0.90;;;2.80;99.90;;;;;;4999060;28;20129;-65
2022/04/01 09:53:14;;;;;;;6.85;2.10;;;2.90;99.90;;;;;;5001983;28;20073;-65
2022/04/01 09:55:44;;;;;;;1.33;1.08;;;3.10;99.90;;;;;;5002884;28;20053;-66
2022/04/01 09:58:12;;;;;;;7.10;1.45;;;3.30;99.90;;;;;;5000816;28;20058;-63
2022/04/01 10:00:42;;;;;;;2.95;1.58;;;3.30;99.90;;;;;;5002759;28;20136;-65
2022/04/01 10:03:11;;;;;;;10.20;1.05;;;3.30;99.90;;;;;;5001683;28;20062;-66
2022/04/01 10:05:40;;;;;;;1.90;1.25;;;3.30;99.90;;;;;;4995710;28;20054;-65
2022/04/01 10:08:09;;;;;;;4.72;1.27;;;3.30;99.90;;;;;;4996347;28;20062;-67
2022/04/01 10:10:38;;;;;;;;;;;3.30;99.90;;;;;;4997847;28;20046;-68
2022/04/01 10:13:23;;;;;;;3.20;0.90;;;3.40;99.90;;;;;;5000175;28;20023;-66
2022/04/01 10:15:50;;;;;;;3.10;1.10;;;3.50;99.90;;;;;;5003486;28;20092;-66
2022/04/01 10:18:42;;;;;;;2.92;1.40;;;3.50;99.90;;;;;;4997223;28;20556;-66
2022/04/01 10:21:09;;;;;;;3.60;1.17;;;3.70;99.90;;;;;;4998472;28;20156;-66
2022/04/01 10:23:43;;;;;;;4.80;1.65;;;3.90;99.90;;;;;;4996329;28;20487;-68
2022/04/01 10:26:14;;;;;;;8.45;1.73;;;4.00;99.90;;;;;;4995054;28;20539;-65
2022/04/01 10:28:45;;;;;;;11.27;1.92;;;3.90;99.90;;;;;;4988315;28;20050;-68
2022/04/01 10:31:18;;;;;;;5.82;1.90;;;3.60;99.90;;;;;;4999728;28;20149;-65
2022/04/01 10:33:46;;;;;;;4.07;1.52;;;3.10;99.90;;;;;;4998706;28;20052;-69
2022/04/01 10:36:16;;;;;;;14.18;1.17;;;2.70;99.90;;;;;;4991615;28;20057;-63
2022/04/01 10:38:48;;;;;;;4.57;0.77;;;2.50;99.90;;;;;;5002831;28;20123;-66
2022/04/01 10:41:18;;;;;;;3.03;1.58;;;2.30;99.90;;;;;;4998558;28;20057;-67
2022/04/01 10:43:51;;;;;;;12.82;1.45;;;2.10;99.90;;;;;;5005296;28;20057;-66
2022/04/01 10:46:19;;;;;;;0.93;0.65;;;2.00;99.90;;;;;;5000682;28;20912;-67
2022/04/01 10:52:12;;;;;;;1.38;1.00;;;2.10;99.90;;;;;;4991727;28;20050;-67
2022/04/01 10:54:43;;;;;;;1.88;0.95;;;2.30;99.90;;;;;;4997693;28;20054;-65
2022/04/01 10:57:30;;;;;;;1.33;0.60;;;2.40;99.90;;;;;;4991403;28;20038;-64
2022/04/01 11:00:04;;;;;;;1.15;0.60;;;2.60;99.90;;;;;;5001453;28;20515;-67
2022/04/01 11:02:32;;;;;;;0.52;0.40;;;2.60;99.90;;;;;;4993067;28;20476;-63
2022/04/01 11:05:19;;;;;;;1.00;0.50;;;2.50;99.90;;;;;;5001062;28;20172;-64
2022/04/01 11:08:06;;;;;;;1.00;0.70;;;2.50;99.90;;;;;;4992589;28;20205;-65
2022/04/01 11:10:34;;;;;;;1.15;1.00;;;2.70;99.90;;;;;;4997999;28;20053;-70
2022/04/01 11:13:01;;;;;;;1.23;0.50;;;2.80;99.90;;;;;;4996011;28;20050;-64
2022/04/01 11:15:28;;;;;;;1.17;0.55;;;3.00;99.90;;;;;;5000098;28;20113;-62
2022/04/01 11:17:55;;;;;;;2.15;0.77;;;3.00;99.90;;;;;;5002471;28;20053;-65
2022/04/01 11:20:22;;;;;;;3.33;1.35;;;3.00;99.90;;;;;;4996153;28;20136;-63
2022/04/01 11:23:04;;;;;;;1.17;1.00;;;2.90;99.90;;;;;;4995707;28;20057;-65
2022/04/01 11:25:31;;;;;;;3.33;1.52;;;2.90;99.90;;;;;;4998823;28;20052;-67
2022/04/01 11:28:14;;;;;;;1.67;0.85;;;2.90;99.90;;;;;;4999366;28;20045;-67
2022/04/01 11:30:45;;;;;;;1.58;1.05;;;2.80;99.90;;;;;;4993007;28;20072;-67
2022/04/01 11:33:18;;;;;;;1.35;0.70;;;2.90;99.90;;;;;;5002546;28;20042;-65
2022/04/01 11:35:57;;;;;;;2.50;1.10;;;2.90;99.90;;;;;;5006209;28;20050;-66
2022/04/01 11:38:25;;;;;;;1.88;0.90;;;3.00;99.90;;;;;;4998282;28;20058;-63
2022/04/01 11:40:56;;;;;;;5.00;1.20;;;3.10;99.90;;;;;;4995584;28;20069;-63
2022/04/01 11:43:24;;;;;;;;;;;3.00;99.90;;;;;;4999012;28;20078;-64
2022/04/01 11:45:57;;;;;;;0.98;0.80;;;2.90;99.90;;;;;;5001178;28;19979;-64
2022/04/01 11:48:46;;;;;;;1.92;0.93;;;2.90;99.90;;;;;;4996859;28;20046;-66
2022/04/01 11:51:17;;;;;;;3.70;1.30;;;2.80;99.90;;;;;;4997865;28;20144;-62
2022/04/01 11:53:49;;;;;;;3.88;1.40;;;2.80;99.90;;;;;;5002725;28;20046;-66
2022/04/01 11:56:30;;;;;;;3.28;1.58;;;2.60;99.90;;;;;;4996987;28;20061;-66
2022/04/01 11:59:00;;;;;;;2.10;1.30;;;2.30;99.90;;;;;;5003289;28;20099;-66
2022/04/01 12:01:34;;;;;;;2.67;1.60;;;2.10;99.90;;;;;;5003173;28;20097;-64
2022/04/01 12:04:09;;;;;;;3.60;1.77;;;2.00;99.90;;;;;;5011844;28;20518;-66
2022/04/01 12:09:30;;;;;;;9.55;1.98;;;2.10;99.90;;;;;;5001876;28;20116;-70
2022/04/01 12:12:04;;;;;;;2.88;1.90;;;2.10;99.90;;;;;;4997958;28;20045;-65
2022/04/01 12:14:33;;;;;;;2.53;1.48;;;2.20;99.90;;;;;;4999774;28;21581;-62
2022/04/01 12:17:07;;;;;;;4.63;2.22;;;2.30;99.90;;;;;;5001162;28;20104;-63
2022/04/01 12:19:34;;;;;;;3.45;2.05;;;2.50;99.90;;;;;;4998963;28;20060;-65
2022/04/01 12:22:02;;;;;;;6.20;2.30;;;2.80;99.90;;;;;;5001830;28;20160;-65
2022/04/01 12:24:30;;;;;;;3.28;1.65;;;2.90;99.90;;;;;;4996493;28;20654;-64
2022/04/01 12:26:59;;;;;;;3.97;1.83;;;3.10;99.90;;;;;;4999287;28;20073;-69
2022/04/01 12:29:28;;;;;;;3.05;2.10;;;3.20;99.90;;;;;;4997347;28;20050;-68
2022/04/01 12:32:02;;;;;;;2.78;1.58;;;3.30;99.90;;;;;;5005718;28;20077;-66
2022/04/01 12:34:30;;;;;;;1.98;1.30;;;3.40;99.90;;;;;;5000068;28;20045;-63
2022/04/01 12:37:05;;;;;;;4.78;3.00;;;3.50;99.90;;;;;;4994881;28;20134;-67
2022/04/01 12:39:34;;;;;;;3.42;1.52;;;3.60;99.90;;;;;;5000452;28;20501;-65
2022/04/01 12:42:11;;;;;;;2.53;1.17;;;3.80;99.90;;;;;;4996847;28;20077;-68
2022/04/01 12:44:40;;;;;;;5.82;1.75;;;4.00;99.90;;;;;;4991818;28;20046;-63
2022/04/01 12:47:08;;;;;;;2.67;2.13;;;4.20;99.90;;;;;;4996514;28;20687;-64
2022/04/01 12:49:40;;;;;;;4.50;1.95;;;4.20;99.90;;;;;;4993304;28;20104;-63
2022/04/01 12:52:14;;;;;;;6.53;2.70;;;4.10;99.90;;;;;;4998986;28;20156;-64
2022/04/01 12:55:00;;;;;;;11.38;2.00;;;3.80;99.90;;;;;;4999831;28;20119;-65
2022/04/01 12:57:27;;;;;;;11.63;2.30;;;3.60;99.90;;;;;;4998661;28;20053;-63
2022/04/01 12:59:56;;;;;;;5.10;1.30;;;3.30;99.90;;;;;;4994123;28;20046;-65
2022/04/01 13:02:25;;;;;;;4.88;1.50;;;3.20;99.90;;;;;;4995936;28;20152;-64
2022/04/01 13:04:56;;;;;;;7.30;2.28;;;3.10;99.90;;;;;;5001089;28;20104;-65
2022/04/01 13:07:31;;;;;;;9.07;2.45;;;3.10;99.90;;;;;;4997321;28;20160;-64
2022/04/01 13:10:09;;;;;;;3.58;1.48;;;3.10;99.90;;;;;;4994023;28;20755;-64
2022/04/01 13:12:38;;;;;;;8.60;2.22;;;3.10;99.90;;;;;;4988261;28;20066;-62
2022/04/01 13:15:08;;;;;;;9.10;2.00;;;3.10;99.90;;;;;;4993407;28;20964;-64
2022/04/01 13:17:50;;;;;;;7.70;1.70;;;3.00;99.90;;;;;;4996688;28;20621;-62
2022/04/01 13:20:32;;;;;;;10.05;2.67;;;2.90;99.90;;;;;;4995611;28;20058;-68
2022/04/01 13:23:03;;;;;;;8.13;1.60;;;2.80;99.90;;;;;;4999825;28;20498;-64
2022/04/01 13:25:31;;;;;;;5.57;1.70;;;2.90;99.90;;;;;;4998016;28;20045;-63
2022/04/01 13:27:59;;;;;;;7.68;1.80;;;3.00;99.90;;;;;;4994353;28;20050;-63
2022/04/01 13:30:25;;;;;;;15.02;2.95;;;3.10;99.90;;;;;;4991560;28;20046;-63